Time,TemperatureF,DewpointF,PressureIn,WindDirection,WindDirectionDegrees,WindSpeedMPH,WindSpeedGustMPH,Humidity,HourlyPrecipIn,Conditions,Clouds,dailyrainin,SoftwareType,DateUTC
2013-06-11 00:02:00,68.5,67.0,0.00,South,188,0.0,2.0,95,0.00,,,0.69,weatherlink.com 1.10,2013-06-11 02:02:00,
2013-06-11 00:19:00,67.9,67.0,0.00,South,188,0.0,3.0,96,0.00,,,0.69,weatherlink.com 1.10,2013-06-11 02:19:00,
2013-06-11 00:35:00,67.5,66.0,0.00,South,188,0.0,2.0,96,0.00,,,0.69,weatherlink.com 1.10,2013-06-11 02:35:00,
2013-06-11 00:51:00,67.1,66.0,0.00,South,188,0.0,0.0,97,0.00,,,0.69,weatherlink.com 1.10,2013-06-11 02:51:00,
2013-06-11 01:07:00,66.8,66.0,0.00,South,188,2.0,3.0,97,0.00,,,0.69,weatherlink.com 1.10,2013-06-11 03:07:00,
2013-06-11 01:24:00,66.6,66.0,0.00,South,188,0.0,2.0,98,0.00,,,0.69,weatherlink.com 1.10,2013-06-11 03:24:00,
2013-06-11 01:40:00,66.8,66.0,0.00,South,188,3.0,3.0,98,0.00,,,0.69,weatherlink.com 1.10,2013-06-11 03:40:00,
2013-06-11 01:56:00,66.8,66.0,0.00,South,188,0.0,3.0,98,0.00,,,0.69,weatherlink.com 1.10,2013-06-11 03:56:00,
2013-06-11 02:12:00,66.8,66.0,0.00,South,188,1.0,3.0,98,0.00,,,0.00,weatherlink.com 1.10,2013-06-11 04:12:00,
2013-06-11 02:29:00,66.7,66.0,0.00,South,188,0.0,0.0,98,0.00,,,0.00,weatherlink.com 1.10,2013-06-11 04:29:00,
2013-06-11 02:45:00,66.3,66.0,0.00,South,188,1.0,3.0,98,0.00,,,0.00,weatherlink.com 1.10,2013-06-11 04:45:00,
2013-06-11 03:01:00,65.9,65.0,0.00,South,188,0.0,2.0,98,0.00,,,0.00,weatherlink.com 1.10,2013-06-11 05:01:00,
2013-06-11 03:19:00,66.5,66.0,22.02,WSW,249,1.0,4.0,99,0.00,,,0.00,weatherlink.com 1.10,2013-06-11 05:19:00,
2013-06-11 03:35:00,67.4,67.0,22.02,WNW,298,4.0,7.0,99,0.00,,,0.00,weatherlink.com 1.10,2013-06-11 05:35:00,
2013-06-11 03:52:00,68.1,68.0,22.02,WNW,294,8.0,17.0,99,0.01,,,0.01,weatherlink.com 1.10,2013-06-11 05:52:00,
2013-06-11 04:08:00,68.2,68.0,22.02,West,271,3.0,7.0,98,0.01,,,0.01,weatherlink.com 1.10,2013-06-11 06:08:00,
2013-06-11 04:24:00,67.9,67.0,22.02,SSW,205,4.0,18.0,97,0.04,,,0.04,weatherlink.com 1.10,2013-06-11 06:24:00,
2013-06-11 04:40:00,67.9,67.0,22.02,SSW,205,0.0,4.0,98,0.04,,,0.05,weatherlink.com 1.10,2013-06-11 06:40:00,
2013-06-11 04:57:00,67.7,67.0,22.02,WSW,253,0.0,1.0,98,0.04,,,0.05,weatherlink.com 1.10,2013-06-11 06:57:00,
2013-06-11 05:13:00,67.5,67.0,22.02,WSW,254,0.0,3.0,98,0.03,,,0.05,weatherlink.com 1.10,2013-06-11 07:13:00,
2013-06-11 05:29:00,66.9,66.0,22.02,WSW,254,0.0,3.0,98,0.01,,,0.05,weatherlink.com 1.10,2013-06-11 07:29:00,
2013-06-11 05:45:00,66.7,66.0,22.02,West,264,1.0,3.0,98,0.00,,,0.05,weatherlink.com 1.10,2013-06-11 07:45:00,
2013-06-11 06:02:00,66.2,66.0,22.02,West,264,0.0,0.0,98,0.00,,,0.05,weatherlink.com 1.10,2013-06-11 08:02:00,
2013-06-11 06:19:00,65.7,65.0,22.02,West,264,0.0,1.0,98,0.00,,,0.05,weatherlink.com 1.10,2013-06-11 08:19:00,
2013-06-11 06:35:00,65.9,65.0,22.02,West,264,0.0,2.0,98,0.00,,,0.05,weatherlink.com 1.10,2013-06-11 08:35:00,
2013-06-11 06:51:00,65.8,65.0,22.02,West,264,0.0,3.0,98,0.00,,,0.05,weatherlink.com 1.10,2013-06-11 08:51:00,
2013-06-11 07:07:00,65.0,64.0,22.02,West,264,0.0,0.0,98,0.00,,,0.05,weatherlink.com 1.10,2013-06-11 09:07:00,
2013-06-11 07:24:00,64.8,65.0,22.09,West,264,0.0,0.0,99,0.00,,,0.05,weatherlink.com 1.10,2013-06-11 09:24:00,
2013-06-11 07:40:00,64.5,64.0,22.09,West,264,2.0,2.0,99,0.00,,,0.05,weatherlink.com 1.10,2013-06-11 09:40:00,
2013-06-11 07:56:00,64.6,64.0,22.09,SW,232,0.0,3.0,99,0.00,,,0.05,weatherlink.com 1.10,2013-06-11 09:56:00,
2013-06-11 08:12:00,64.0,63.0,22.09,SW,232,0.0,0.0,98,0.00,,,0.05,weatherlink.com 1.10,2013-06-11 10:12:00,
2013-06-11 08:29:00,63.7,63.0,22.09,SW,232,1.0,2.0,99,0.00,,,0.05,weatherlink.com 1.10,2013-06-11 10:29:00,
2013-06-11 08:45:00,64.5,64.0,22.09,West,277,2.0,5.0,99,0.00,,,0.05,weatherlink.com 1.10,2013-06-11 10:45:00,
2013-06-11 09:01:00,65.3,65.0,22.09,West,281,0.0,4.0,99,0.00,,,0.05,weatherlink.com 1.10,2013-06-11 11:01:00,
2013-06-11 09:17:00,66.3,66.0,0.00,WNW,282,0.0,1.0,99,0.00,,,0.05,weatherlink.com 1.10,2013-06-11 11:17:00,
2013-06-11 09:34:00,66.4,66.0,0.00,West,281,0.0,2.0,99,0.00,,,0.05,weatherlink.com 1.10,2013-06-11 11:34:00,
2013-06-11 09:50:00,67.9,68.0,0.00,NNW,327,0.0,1.0,99,0.00,,,0.05,weatherlink.com 1.10,2013-06-11 11:50:00,
2013-06-11 10:06:00,68.7,68.0,0.00,SSE,163,0.0,3.0,98,0.00,,,0.05,weatherlink.com 1.10,2013-06-11 12:06:00,
2013-06-11 10:23:00,70.2,69.0,0.00,West,277,0.0,1.0,96,0.00,,,0.05,weatherlink.com 1.10,2013-06-11 12:23:00,
2013-06-11 10:39:00,70.8,69.0,0.00,West,277,1.0,2.0,94,0.00,,,0.05,weatherlink.com 1.10,2013-06-11 12:39:00,
2013-06-11 10:55:00,71.6,69.0,0.00,West,277,2.0,3.0,91,0.00,,,0.05,weatherlink.com 1.10,2013-06-11 12:55:00,
2013-06-11 11:11:00,73.1,68.0,22.11,West,277,2.0,4.0,84,0.00,,,0.05,weatherlink.com 1.10,2013-06-11 13:11:00,
2013-06-11 11:28:00,73.5,67.0,22.11,West,271,4.0,9.0,80,0.00,,,0.05,weatherlink.com 1.10,2013-06-11 13:28:00,
2013-06-11 11:44:00,73.8,67.0,22.11,West,264,4.0,10.0,78,0.00,,,0.05,weatherlink.com 1.10,2013-06-11 13:44:00,
2013-06-11 12:00:00,73.4,65.0,22.11,West,277,4.0,9.0,75,0.00,,,0.05,weatherlink.com 1.10,2013-06-11 14:00:00,
2013-06-11 12:17:00,73.2,66.0,22.11,WNW,288,0.0,7.0,79,0.00,,,0.05,weatherlink.com 1.10,2013-06-11 14:17:00,
2013-06-11 12:34:00,74.0,66.0,22.11,WSW,253,3.0,5.0,76,0.00,,,0.05,weatherlink.com 1.10,2013-06-11 14:34:00,
2013-06-11 12:50:00,74.9,67.0,0.00,West,264,3.0,6.0,76,0.00,,,0.05,weatherlink.com 1.10,2013-06-11 14:50:00,
2013-06-11 13:23:00,76.2,67.0,0.00,WNW,284,4.0,8.0,73,0.00,,,0.05,weatherlink.com 1.10,2013-06-11 15:23:00,
2013-06-11 13:39:00,76.6,65.0,0.00,WSW,253,5.0,8.0,68,0.00,,,0.05,weatherlink.com 1.10,2013-06-11 15:39:00,
2013-06-11 13:55:00,78.0,68.0,0.00,SW,223,4.0,7.0,72,0.00,,,0.05,weatherlink.com 1.10,2013-06-11 15:55:00,
2013-06-11 14:11:00,77.8,68.0,0.00,WSW,249,4.0,5.0,71,0.00,,,0.05,weatherlink.com 1.10,2013-06-11 16:11:00,
2013-06-11 14:28:00,78.4,66.0,0.00,WSW,255,1.0,9.0,66,0.00,,,0.05,weatherlink.com 1.10,2013-06-11 16:28:00,
2013-06-11 14:44:00,78.9,65.0,0.00,West,271,5.0,9.0,63,0.00,,,0.05,weatherlink.com 1.10,2013-06-11 16:44:00,
2013-06-11 15:00:00,79.1,65.0,0.00,WSW,257,7.0,10.0,62,0.00,,,0.05,weatherlink.com 1.10,2013-06-11 17:00:00,
2013-06-11 15:17:00,79.8,66.0,0.00,West,279,3.0,15.0,63,0.00,,,0.05,weatherlink.com 1.10,2013-06-11 17:17:00,
2013-06-11 15:34:00,79.9,66.0,0.00,South,188,8.0,8.0,62,0.00,,,0.05,weatherlink.com 1.10,2013-06-11 17:34:00,
2013-06-11 15:50:00,80.8,66.0,0.00,SW,226,0.0,8.0,60,0.00,,,0.05,weatherlink.com 1.10,2013-06-11 17:50:00,
2013-06-11 16:06:00,81.1,68.0,0.00,WNW,287,4.0,12.0,64,0.00,,,0.05,weatherlink.com 1.10,2013-06-11 18:06:00,
2013-06-11 16:23:00,81.9,67.0,0.00,NNW,327,6.0,13.0,60,0.00,,,0.05,weatherlink.com 1.10,2013-06-11 18:23:00,
2013-06-11 16:39:00,82.1,67.0,0.00,WNW,291,8.0,10.0,60,0.00,,,0.05,weatherlink.com 1.10,2013-06-11 18:39:00,
2013-06-11 16:55:00,82.5,70.0,0.00,WNW,294,4.0,10.0,66,0.00,,,0.05,weatherlink.com 1.10,2013-06-11 18:55:00,
2013-06-11 17:11:00,83.2,66.0,0.00,NNE,24,3.0,10.0,56,0.00,,,0.05,weatherlink.com 1.10,2013-06-11 19:11:00,
2013-06-11 17:28:00,82.4,66.0,0.00,NNW,333,3.0,9.0,58,0.00,,,0.05,weatherlink.com 1.10,2013-06-11 19:28:00,
2013-06-11 17:44:00,83.0,66.0,0.00,North,355,3.0,4.0,56,0.00,,,0.05,weatherlink.com 1.10,2013-06-11 19:44:00,
2013-06-11 18:00:00,83.8,66.0,0.00,NW,317,7.0,10.0,55,0.00,,,0.05,weatherlink.com 1.10,2013-06-11 20:00:00,
2013-06-11 18:17:00,83.2,65.0,0.00,NE,35,0.0,11.0,55,0.00,,,0.05,weatherlink.com 1.10,2013-06-11 20:17:00,
2013-06-11 18:34:00,83.0,65.0,0.00,WNW,300,6.0,14.0,54,0.00,,,0.05,weatherlink.com 1.10,2013-06-11 20:34:00,
2013-06-11 18:50:00,83.1,66.0,0.00,NW,306,10.0,15.0,56,0.00,,,0.05,weatherlink.com 1.10,2013-06-11 20:50:00,
2013-06-11 19:06:00,83.0,65.0,0.00,NW,316,5.0,15.0,54,0.00,,,0.05,weatherlink.com 1.10,2013-06-11 21:06:00,
2013-06-11 19:23:00,83.1,66.0,0.00,WNW,298,5.0,13.0,56,0.00,,,0.05,weatherlink.com 1.10,2013-06-11 21:23:00,
2013-06-11 19:39:00,83.3,64.0,0.00,NW,317,3.0,9.0,52,0.00,,,0.05,weatherlink.com 1.10,2013-06-11 21:39:00,
2013-06-11 19:55:00,83.7,66.0,0.00,West,277,6.0,8.0,55,0.00,,,0.05,weatherlink.com 1.10,2013-06-11 21:55:00,
2013-06-11 20:11:00,83.1,65.0,0.00,NW,326,4.0,9.0,55,0.00,,,0.05,weatherlink.com 1.10,2013-06-11 22:11:00,
2013-06-11 20:28:00,83.2,63.0,0.00,NW,319,4.0,8.0,51,0.00,,,0.05,weatherlink.com 1.10,2013-06-11 22:28:00,
2013-06-11 20:44:00,83.6,65.0,0.00,NNW,340,3.0,4.0,54,0.00,,,0.05,weatherlink.com 1.10,2013-06-11 22:44:00,
2013-06-11 21:00:00,83.3,66.0,0.00,NW,310,2.0,6.0,57,0.00,,,0.05,weatherlink.com 1.10,2013-06-11 23:00:00,
2013-06-11 21:17:00,82.5,66.0,0.00,NNW,327,4.0,7.0,58,0.00,,,0.05,weatherlink.com 1.10,2013-06-11 23:17:00,
2013-06-11 21:34:00,81.9,65.0,0.00,NNW,336,3.0,5.0,57,0.00,,,0.05,weatherlink.com 1.10,2013-06-11 23:34:00,
2013-06-11 21:50:00,80.9,66.0,0.00,NNW,331,1.0,4.0,61,0.00,,,0.05,weatherlink.com 1.10,2013-06-11 23:50:00,
2013-06-11 22:06:00,79.8,66.0,0.00,NNW,331,0.0,3.0,62,0.00,,,0.05,weatherlink.com 1.10,2013-06-12 00:06:00,
2013-06-11 22:23:00,78.2,69.0,0.00,NNW,331,0.0,0.0,73,0.00,,,0.05,weatherlink.com 1.10,2013-06-12 00:23:00,
2013-06-11 22:39:00,76.1,67.0,0.00,NNW,331,0.0,0.0,74,0.00,,,0.05,weatherlink.com 1.10,2013-06-12 00:39:00,
2013-06-11 22:55:00,74.0,67.0,0.00,NNW,331,0.0,0.0,78,0.00,,,0.05,weatherlink.com 1.10,2013-06-12 00:55:00,
2013-06-11 23:11:00,72.2,67.0,0.00,NNW,331,0.0,0.0,84,0.00,,,0.05,weatherlink.com 1.10,2013-06-12 01:11:00,
2013-06-11 23:28:00,70.6,67.0,0.00,NNW,331,0.0,0.0,87,0.00,,,0.05,weatherlink.com 1.10,2013-06-12 01:28:00,
2013-06-11 23:44:00,69.9,67.0,0.00,NNW,331,0.0,0.0,90,0.00,,,0.05,weatherlink.com 1.10,2013-06-12 01:44:00,